KBED/BED METAR and TAF weather

Enter ICAO airport designator
Station Type Date Time Source
KBED METAR 2021/07/29 02:51 UTC NOAA

KBED 290251Z AUTO 00000KT 10SM CLR 16/14 A3002 RMK AO2 SLP177 60000 T01560144 52008


Station Type Date Time Source
KBED Decoded METAR 2021/07/29 02:51 UTC NOAA

BEDFORD HANSCOM FIELD, MA, United States (KBED) 42-28N 071-18W 50M
Jul 28, 2021 - 10:51 PM EDT / 2021.07.29 0251 UTC
Wind: Calm:0
Visibility: 10 mile(s):0
Sky conditions: clear
Temperature: 60.1 F (15.6 C)
Dew Point: 57.9 F (14.4 C)
Relative Humidity: 92%
Pressure (altimeter): 30.02 in. Hg (1016 hPa)
Pressure tendency: 0.02 inches (0.8 hPa) higher than three hours ago
ob: KBED 290251Z AUTO 00000KT 10SM CLR 16/14 A3002 RMK AO2 SLP177 60000 T01560144 52008
cycle: 3

Station Type Date Time Source
KBED TAF 2021/07/28 18:27 UTC NOAA

TAF KBED 281723Z 2818/2918 05004KT P6SM SCT025 BKN050
FM290100 16003KT P6SM FEW250
FM290900 00000KT P6SM SCT150
FM291100 21003KT P6SM SCT200
FM291400 19006KT P6SM SCT050
FM291600 19008KT P6SM BKN050

Example: see airport list